sensor_id;sensor_type;location;lat;lon;timestamp;temperature;humidity
28715;DHT22;15886;49.170;14.572;2022-12-18T18:16:41;-0.80;84.40
28715;DHT22;15886;49.170;14.572;2022-12-18T18:19:15;-1.20;85.90
28715;DHT22;15886;49.170;14.572;2022-12-18T18:21:47;-1.40;86.70
28715;DHT22;15886;49.170;14.572;2022-12-18T18:24:20;-1.30;86.70
28715;DHT22;15886;49.170;14.572;2022-12-18T18:26:53;-1.20;86.50
28715;DHT22;15886;49.170;14.572;2022-12-18T18:29:28;-1.30;86.80
28715;DHT22;15886;49.170;14.572;2022-12-18T18:31:59;-1.30;87.20
28715;DHT22;15886;49.170;14.572;2022-12-18T18:34:30;-1.40;87.00
28715;DHT22;15886;49.170;14.572;2022-12-18T18:37:00;-1.40;87.60
28715;DHT22;15886;49.170;14.572;2022-12-18T18:39:30;-1.30;87.20
28715;DHT22;15886;49.170;14.572;2022-12-18T18:42:00;-1.30;87.00
28715;DHT22;15886;49.170;14.572;2022-12-18T18:44:32;-1.30;86.90
28715;DHT22;15886;49.170;14.572;2022-12-18T18:47:01;-1.40;87.20
28715;DHT22;15886;49.170;14.572;2022-12-18T18:49:30;-1.40;87.60
28715;DHT22;15886;49.170;14.572;2022-12-18T18:52:00;-1.40;87.50
28715;DHT22;15886;49.170;14.572;2022-12-18T18:54:31;-1.30;87.40
28715;DHT22;15886;49.170;14.572;2022-12-18T18:57:02;-1.40;87.10
28715;DHT22;15886;49.170;14.572;2022-12-18T18:59:50;-1.40;88.00
28715;DHT22;15886;49.170;14.572;2022-12-18T19:02:21;-1.30;88.40
28715;DHT22;15886;49.170;14.572;2022-12-18T19:04:52;-1.30;88.40
28715;DHT22;15886;49.170;14.572;2022-12-18T19:07:21;-1.20;88.10
28715;DHT22;15886;49.170;14.572;2022-12-18T19:09:51;-1.10;87.60
28715;DHT22;15886;49.170;14.572;2022-12-18T19:12:23;-1.10;87.60
28715;DHT22;15886;49.170;14.572;2022-12-18T19:15:11;-1.20;87.40
28715;DHT22;15886;49.170;14.572;2022-12-18T19:17:43;-1.30;87.70
28715;DHT22;15886;49.170;14.572;2022-12-18T19:20:14;-1.30;88.30
28715;DHT22;15886;49.170;14.572;2022-12-18T19:22:43;-1.30;88.50
28715;DHT22;15886;49.170;14.572;2022-12-18T19:25:11;-1.20;88.60
28715;DHT22;15886;49.170;14.572;2022-12-18T19:27:40;-1.30;88.10
28715;DHT22;15886;49.170;14.572;2022-12-18T19:30:12;-1.40;88.80
28715;DHT22;15886;49.170;14.572;2022-12-18T19:32:43;-1.40;89.30
28715;DHT22;15886;49.170;14.572;2022-12-18T19:35:13;-1.50;89.60
28715;DHT22;15886;49.170;14.572;2022-12-18T19:37:41;-1.50;89.90
28715;DHT22;15886;49.170;14.572;2022-12-18T19:40:10;-1.40;90.10
28715;DHT22;15886;49.170;14.572;2022-12-18T19:42:39;-1.40;90.20
28715;DHT22;15886;49.170;14.572;2022-12-18T19:45:11;-1.30;90.40
28715;DHT22;15886;49.170;14.572;2022-12-18T19:47:45;-1.30;90.50
28715;DHT22;15886;49.170;14.572;2022-12-18T19:50:15;-1.30;90.60
28715;DHT22;15886;49.170;14.572;2022-12-18T19:52:44;-1.20;90.80
28715;DHT22;15886;49.170;14.572;2022-12-18T19:55:13;-1.10;90.60
28715;DHT22;15886;49.170;14.572;2022-12-18T19:57:43;-1.10;90.60
28715;DHT22;15886;49.170;14.572;2022-12-18T20:00:13;-1.20;90.80
28715;DHT22;15886;49.170;14.572;2022-12-18T20:02:45;-1.20;91.00
28715;DHT22;15886;49.170;14.572;2022-12-18T20:05:13;-1.30;91.10
28715;DHT22;15886;49.170;14.572;2022-12-18T20:07:43;-1.30;91.50
28715;DHT22;15886;49.170;14.572;2022-12-18T20:10:18;-1.30;91.70
28715;DHT22;15886;49.170;14.572;2022-12-18T20:12:48;-1.30;91.80
28715;DHT22;15886;49.170;14.572;2022-12-18T20:15:17;-1.20;91.70
28715;DHT22;15886;49.170;14.572;2022-12-18T20:17:45;-1.10;91.70
28715;DHT22;15886;49.170;14.572;2022-12-18T20:20:13;-1.10;91.70
28715;DHT22;15886;49.170;14.572;2022-12-18T20:22:41;-1.20;91.80
28715;DHT22;15886;49.170;14.572;2022-12-18T20:25:16;-1.10;92.00
28715;DHT22;15886;49.170;14.572;2022-12-18T20:27:44;-1.10;92.00
28715;DHT22;15886;49.170;14.572;2022-12-18T20:30:13;-1.20;92.20
28715;DHT22;15886;49.170;14.572;2022-12-18T20:32:41;-1.20;92.60
28715;DHT22;15886;49.170;14.572;2022-12-18T20:35:09;-1.10;92.50
28715;DHT22;15886;49.170;14.572;2022-12-18T20:37:38;-1.10;92.50
28715;DHT22;15886;49.170;14.572;2022-12-18T20:40:07;-1.10;92.50
28715;DHT22;15886;49.170;14.572;2022-12-18T20:42:35;-1.10;92.70
28715;DHT22;15886;49.170;14.572;2022-12-18T20:45:05;-1.00;92.70
28715;DHT22;15886;49.170;14.572;2022-12-18T20:47:33;-1.10;92.70
28715;DHT22;15886;49.170;14.572;2022-12-18T20:50:01;-1.10;93.00
28715;DHT22;15886;49.170;14.572;2022-12-18T20:52:29;-1.00;93.00
28715;DHT22;15886;49.170;14.572;2022-12-18T20:54:57;-1.00;92.90
28715;DHT22;15886;49.170;14.572;2022-12-18T20:57:25;-0.90;92.90
28715;DHT22;15886;49.170;14.572;2022-12-18T20:59:53;-0.80;92.80
28715;DHT22;15886;49.170;14.572;2022-12-18T21:02:21;-0.80;92.80
28715;DHT22;15886;49.170;14.572;2022-12-18T21:04:49;-0.80;92.70
28715;DHT22;15886;49.170;14.572;2022-12-18T21:07:17;-0.80;92.70
28715;DHT22;15886;49.170;14.572;2022-12-18T21:09:45;-0.80;92.80
28715;DHT22;15886;49.170;14.572;2022-12-18T21:12:14;-0.90;92.90
28715;DHT22;15886;49.170;14.572;2022-12-18T21:15:07;-1.00;93.20
28715;DHT22;15886;49.170;14.572;2022-12-18T21:17:35;-1.00;93.60
28715;DHT22;15886;49.170;14.572;2022-12-18T21:20:04;-1.00;93.70
28715;DHT22;15886;49.170;14.572;2022-12-18T21:22:32;-1.00;93.60
28715;DHT22;15886;49.170;14.572;2022-12-18T21:25:00;-1.00;93.80
28715;DHT22;15886;49.170;14.572;2022-12-18T21:27:28;-1.00;93.80
28715;DHT22;15886;49.170;14.572;2022-12-18T21:29:56;-1.10;94.00
28715;DHT22;15886;49.170;14.572;2022-12-18T21:32:24;-1.10;94.20
28715;DHT22;15886;49.170;14.572;2022-12-18T21:34:52;-1.00;94.20
28715;DHT22;15886;49.170;14.572;2022-12-18T21:37:20;-1.10;94.20
28715;DHT22;15886;49.170;14.572;2022-12-18T21:39:48;-1.10;94.40
28715;DHT22;15886;49.170;14.572;2022-12-18T21:42:16;-1.10;94.40
28715;DHT22;15886;49.170;14.572;2022-12-18T21:45:02;-1.00;94.50
28715;DHT22;15886;49.170;14.572;2022-12-18T21:47:31;-1.10;94.60
28715;DHT22;15886;49.170;14.572;2022-12-18T21:49:58;-1.00;94.50
28715;DHT22;15886;49.170;14.572;2022-12-18T21:52:27;-1.00;94.70
28715;DHT22;15886;49.170;14.572;2022-12-18T21:54:54;-0.90;94.50
28715;DHT22;15886;49.170;14.572;2022-12-18T21:57:22;-0.80;94.30
28715;DHT22;15886;49.170;14.572;2022-12-18T21:59:50;-0.80;94.20
28715;DHT22;15886;49.170;14.572;2022-12-18T22:02:20;-0.80;94.20
28715;DHT22;15886;49.170;14.572;2022-12-18T22:04:48;-0.80;94.20
28715;DHT22;15886;49.170;14.572;2022-12-18T22:07:16;-0.80;94.10
28715;DHT22;15886;49.170;14.572;2022-12-18T22:09:45;-0.80;94.30
28715;DHT22;15886;49.170;14.572;2022-12-18T22:12:16;-0.80;94.40
28715;DHT22;15886;49.170;14.572;2022-12-18T22:15:03;-0.80;94.50
28715;DHT22;15886;49.170;14.572;2022-12-18T22:17:31;-0.80;94.50
28715;DHT22;15886;49.170;14.572;2022-12-18T22:19:59;-0.70;94.50
28715;DHT22;15886;49.170;14.572;2022-12-18T22:22:27;-0.70;94.40
28715;DHT22;15886;49.170;14.572;2022-12-18T22:24:55;-0.60;94.40
28715;DHT22;15886;49.170;14.572;2022-12-18T22:27:23;-0.60;94.50
28715;DHT22;15886;49.170;14.572;2022-12-18T22:29:51;-0.50;94.30
28715;DHT22;15886;49.170;14.572;2022-12-18T22:32:33;-0.50;94.20
28715;DHT22;15886;49.170;14.572;2022-12-18T22:35:03;-0.50;94.20
28715;DHT22;15886;49.170;14.572;2022-12-18T22:37:34;-0.40;94.20
28715;DHT22;15886;49.170;14.572;2022-12-18T22:40:03;-0.50;94.40
28715;DHT22;15886;49.170;14.572;2022-12-18T22:42:32;-0.40;94.30
28715;DHT22;15886;49.170;14.572;2022-12-18T22:45:00;-0.30;94.00
28715;DHT22;15886;49.170;14.572;2022-12-18T22:47:27;-0.30;94.00
28715;DHT22;15886;49.170;14.572;2022-12-18T22:49:57;-0.30;93.90
28715;DHT22;15886;49.170;14.572;2022-12-18T22:52:24;-0.30;94.00
28715;DHT22;15886;49.170;14.572;2022-12-18T22:54:53;-0.30;94.20
28715;DHT22;15886;49.170;14.572;2022-12-18T22:57:22;-0.40;94.20
28715;DHT22;15886;49.170;14.572;2022-12-18T22:59:50;-0.30;94.20
28715;DHT22;15886;49.170;14.572;2022-12-18T23:02:18;-0.30;94.20
28715;DHT22;15886;49.170;14.572;2022-12-18T23:04:46;-0.20;94.20
28715;DHT22;15886;49.170;14.572;2022-12-18T23:07:15;-0.20;94.10
28715;DHT22;15886;49.170;14.572;2022-12-18T23:09:43;-0.20;94.00
28715;DHT22;15886;49.170;14.572;2022-12-18T23:12:15;-0.20;94.10
28715;DHT22;15886;49.170;14.572;2022-12-18T23:14:43;-0.20;94.20
28715;DHT22;15886;49.170;14.572;2022-12-18T23:17:12;-0.20;94.00
28715;DHT22;15886;49.170;14.572;2022-12-18T23:19:40;-0.20;94.10
28715;DHT22;15886;49.170;14.572;2022-12-18T23:22:10;-0.20;94.30
28715;DHT22;15886;49.170;14.572;2022-12-18T23:24:38;-0.20;94.20
28715;DHT22;15886;49.170;14.572;2022-12-18T23:27:06;-0.20;94.10
28715;DHT22;15886;49.170;14.572;2022-12-18T23:29:35;-0.20;94.20
28715;DHT22;15886;49.170;14.572;2022-12-18T23:32:03;-0.20;94.10
28715;DHT22;15886;49.170;14.572;2022-12-18T23:34:31;-0.20;94.20
28715;DHT22;15886;49.170;14.572;2022-12-18T23:36:58;-0.20;94.40
28715;DHT22;15886;49.170;14.572;2022-12-18T23:39:28;-0.10;94.30
28715;DHT22;15886;49.170;14.572;2022-12-18T23:41:57;-0.10;94.30
28715;DHT22;15886;49.170;14.572;2022-12-18T23:44:25;-0.10;94.10
28715;DHT22;15886;49.170;14.572;2022-12-18T23:46:54;0.00;94.00
28715;DHT22;15886;49.170;14.572;2022-12-18T23:49:22;0.00;94.00
28715;DHT22;15886;49.170;14.572;2022-12-18T23:51:52;-0.10;94.20
28715;DHT22;15886;49.170;14.572;2022-12-18T23:54:21;-0.10;94.20
28715;DHT22;15886;49.170;14.572;2022-12-18T23:56:49;0.00;94.10
28715;DHT22;15886;49.170;14.572;2022-12-18T23:59:17;-0.10;94.30
